Time;durP1;ratioP1;P1;durP2;ratioP2;P2;SDS_P1;SDS_P2;PMS_P1;PMS_P2;Temp;Humidity;BMP_temperature;BMP_pressure;BME280_temperature;BME280_humidity;BME280_pressure;Samples;Min_cycle;Max_cycle;Signal;HPM_P1;HPM_P2
2023/07/20 00:01:28;;;;;;;8.00;7.10;;;15.20;99.90;;;;;;6094095;23;20030;-84
2023/07/20 00:03:56;;;;;;;8.10;7.15;;;15.10;99.90;;;;;;6094261;23;20018;-83
2023/07/20 00:06:24;;;;;;;8.52;7.15;;;15.10;99.90;;;;;;6094065;23;20018;-84
2023/07/20 00:08:51;;;;;;;7.57;6.32;;;15.10;99.90;;;;;;6094207;23;20015;-84
2023/07/20 00:11:17;;;;;;;6.53;5.93;;;15.10;99.90;;;;;;6093875;23;20090;-83
2023/07/20 00:13:43;;;;;;;6.80;6.20;;;15.10;99.90;;;;;;6093922;23;20052;-84
2023/07/20 00:16:08;;;;;;;6.72;5.75;;;15.10;99.90;;;;;;6094285;23;20520;-84
2023/07/20 00:18:34;;;;;;;6.75;5.47;;;15.10;99.90;;;;;;6070456;23;20093;-84
2023/07/20 00:21:00;;;;;;;6.60;4.97;;;15.10;99.90;;;;;;6093986;23;20314;-84
2023/07/20 00:23:26;;;;;;;7.68;5.05;;;15.10;99.90;;;;;;6093738;23;20352;-84
2023/07/20 00:25:52;;;;;;;4.97;4.40;;;15.10;99.90;;;;;;6022742;23;20449;-84
2023/07/20 00:28:17;;;;;;;6.00;5.07;;;15.10;99.90;;;;;;6094510;23;20446;-84
2023/07/20 00:30:43;;;;;;;4.85;4.07;;;15.00;99.90;;;;;;6046304;23;20022;-84
2023/07/20 00:33:11;;;;;;;5.18;4.53;;;15.00;99.90;;;;;;6070608;23;20022;-84
2023/07/20 00:35:37;;;;;;;4.20;3.78;;;15.00;99.90;;;;;;6093771;23;20029;-84
2023/07/20 00:38:03;;;;;;;4.00;3.63;;;15.00;99.90;;;;;;6046699;23;20533;-84
2023/07/20 00:40:36;;;;;;;4.35;3.15;;;15.00;99.90;;;;;;6093827;23;20019;-83
2023/07/20 00:43:02;;;;;;;3.67;3.17;;;15.00;99.90;;;;;;6069879;23;20340;-83
2023/07/20 00:45:28;;;;;;;3.47;3.20;;;14.90;99.90;;;;;;6094282;23;20029;-83
2023/07/20 00:47:53;;;;;;;3.83;3.45;;;14.90;99.90;;;;;;6092951;23;20057;-84
2023/07/20 00:50:19;;;;;;;4.57;3.40;;;14.90;99.90;;;;;;6070050;23;20016;-84
2023/07/20 00:52:45;;;;;;;4.72;3.63;;;14.90;99.90;;;;;;6093643;23;20365;-83
2023/07/20 00:55:11;;;;;;;4.20;3.80;;;14.90;99.90;;;;;;6093292;23;20042;-83
2023/07/20 00:57:37;;;;;;;3.85;3.53;;;14.80;99.90;;;;;;6093621;23;20018;-83
2023/07/20 01:00:03;;;;;;;5.03;3.25;;;14.80;99.90;;;;;;6117992;23;20765;-84
2023/07/20 01:02:28;;;;;;;3.70;3.40;;;14.80;99.90;;;;;;6093170;23;20097;-83
2023/07/20 01:04:54;;;;;;;3.40;3.10;;;14.80;99.90;;;;;;6069437;23;20086;-83
2023/07/20 01:07:53;;;;;;;3.65;3.10;;;14.80;99.90;;;;;;6093053;23;20025;-84
2023/07/20 01:10:18;;;;;;;4.57;2.63;;;14.70;99.90;;;;;;6055282;23;20018;-83
2023/07/20 01:12:51;;;;;;;4.32;3.03;;;14.70;99.90;;;;;;6092921;23;20010;-83
2023/07/20 01:15:17;;;;;;;3.28;2.72;;;14.70;99.90;;;;;;6094046;23;20018;-83
2023/07/20 01:17:43;;;;;;;3.13;2.80;;;14.70;99.90;;;;;;6093412;23;20511;-83
2023/07/20 01:20:13;;;;;;;3.33;3.03;;;14.60;99.90;;;;;;6094099;23;20032;-83
2023/07/20 01:23:03;;;;;;;6.43;3.20;;;14.50;99.90;;;;;;6093324;23;20057;-83
2023/07/20 01:25:54;;;;;;;3.40;2.80;;;14.60;99.90;;;;;;6093507;23;20066;-83
2023/07/20 01:28:38;;;;;;;7.38;3.30;;;14.50;99.90;;;;;;6093369;23;20050;-83
2023/07/20 01:31:31;;;;;;;4.93;3.33;;;14.50;99.90;;;;;;6093314;23;20057;-84
2023/07/20 01:34:00;;;;;;;4.78;3.22;;;14.50;99.90;;;;;;6093385;23;20089;-83
2023/07/20 01:36:29;;;;;;;3.38;3.08;;;14.50;99.90;;;;;;6093511;23;20014;-84
2023/07/20 01:38:55;;;;;;;4.45;3.55;;;14.50;99.90;;;;;;6093115;23;20018;-83
2023/07/20 01:41:21;;;;;;;3.58;3.28;;;14.50;99.90;;;;;;6093779;23;20022;-84
2023/07/20 01:43:47;;;;;;;3.83;3.42;;;14.50;99.90;;;;;;6092360;23;20022;-83
2023/07/20 01:46:13;;;;;;;3.78;3.40;;;14.40;99.90;;;;;;6069371;23;20023;-83
2023/07/20 01:48:39;;;;;;;3.92;3.50;;;14.40;99.90;;;;;;6093339;23;20011;-83
2023/07/20 01:51:04;;;;;;;4.68;4.10;;;14.30;99.90;;;;;;6093826;23;20014;-83
2023/07/20 01:53:30;;;;;;;4.28;3.72;;;14.30;99.90;;;;;;6092801;23;20022;-83
2023/07/20 01:55:56;;;;;;;4.55;4.15;;;14.30;99.90;;;;;;6092059;23;20074;-83
2023/07/20 01:58:22;;;;;;;4.22;3.83;;;14.30;99.90;;;;;;6068958;23;20021;-83
2023/07/20 02:00:48;;;;;;;4.43;3.95;;;14.30;99.90;;;;;;6092709;23;20018;-84
2023/07/20 02:03:13;;;;;;;4.30;3.90;;;14.20;99.90;;;;;;6092695;23;20028;-83
2023/07/20 02:05:39;;;;;;;4.20;3.78;;;14.20;99.90;;;;;;6093342;23;20113;-84
2023/07/20 02:08:05;;;;;;;5.93;3.88;;;14.20;99.90;;;;;;6092779;23;20029;-83
2023/07/20 02:10:31;;;;;;;4.40;3.88;;;14.10;99.90;;;;;;6117457;23;20031;-83
2023/07/20 02:12:56;;;;;;;5.43;4.40;;;14.10;99.90;;;;;;6092923;23;20041;-83
2023/07/20 02:15:22;;;;;;;4.78;4.28;;;14.10;99.90;;;;;;6092855;23;20010;-84
2023/07/20 02:17:48;;;;;;;4.90;4.10;;;14.00;99.90;;;;;;6068944;23;20153;-83
2023/07/20 02:20:14;;;;;;;4.43;4.03;;;14.10;99.90;;;;;;6093243;23;20025;-83
2023/07/20 02:22:40;;;;;;;5.40;4.90;;;14.00;99.90;;;;;;6092847;23;20018;-84
2023/07/20 02:25:07;;;;;;;9.43;6.78;;;14.00;99.90;;;;;;6092432;23;20029;-83
2023/07/20 02:27:33;;;;;;;7.50;6.43;;;13.90;99.90;;;;;;6092913;23;20310;-83
2023/07/20 02:29:59;;;;;;;9.70;7.90;;;13.90;99.90;;;;;;6069077;23;20014;-83
2023/07/20 02:32:25;;;;;;;10.95;7.20;;;13.90;99.90;;;;;;6045579;23;20021;-83
2023/07/20 02:34:51;;;;;;;13.52;8.65;;;13.90;99.90;;;;;;6093188;23;20081;-83
2023/07/20 02:37:17;;;;;;;10.40;7.32;;;13.80;99.90;;;;;;6069168;23;20518;-83
2023/07/20 02:39:42;;;;;;;10.73;8.10;;;13.80;99.90;;;;;;6069572;23;20105;-83
2023/07/20 02:42:08;;;;;;;8.88;7.20;;;13.80;99.90;;;;;;6093177;23;20024;-83
2023/07/20 02:44:34;;;;;;;15.27;9.05;;;13.80;99.90;;;;;;6092856;23;20026;-84
2023/07/20 02:46:59;;;;;;;9.82;8.23;;;13.80;99.90;;;;;;6069147;23;20025;-83
2023/07/20 02:49:26;;;;;;;10.98;9.65;;;13.70;99.90;;;;;;6092706;23;20462;-84
2023/07/20 02:51:52;;;;;;;10.75;8.60;;;13.70;99.90;;;;;;6069041;23;20397;-83
2023/07/20 02:54:18;;;;;;;8.60;7.70;;;13.60;99.90;;;;;;6069004;23;20025;-84
2023/07/20 02:56:44;;;;;;;10.35;8.73;;;13.70;99.90;;;;;;6069361;23;20030;-84
2023/07/20 02:59:09;;;;;;;9.05;8.15;;;13.70;99.90;;;;;;6068798;23;20015;-84
2023/07/20 03:01:35;;;;;;;8.48;7.68;;;13.70;99.90;;;;;;6069037;23;20022;-84
2023/07/20 03:04:02;;;;;;;7.55;6.85;;;13.70;99.90;;;;;;6068452;23;20097;-84
2023/07/20 03:06:28;;;;;;;8.13;7.43;;;13.70;99.90;;;;;;6068867;23;20011;-83
2023/07/20 03:08:53;;;;;;;8.95;8.05;;;13.70;99.90;;;;;;6068966;23;20321;-84
2023/07/20 03:11:20;;;;;;;9.93;8.55;;;13.70;99.90;;;;;;6092314;23;20069;-84
2023/07/20 03:13:47;;;;;;;12.75;9.18;;;13.70;99.90;;;;;;6092632;23;20018;-84
2023/07/20 03:16:17;;;;;;;9.18;8.05;;;13.60;99.90;;;;;;6068016;23;20066;-84
2023/07/20 03:18:43;;;;;;;10.23;8.60;;;13.60;99.90;;;;;;6092342;23;20345;-84
2023/07/20 03:21:13;;;;;;;10.02;9.02;;;13.60;99.90;;;;;;6068727;23;20026;-84
2023/07/20 03:23:40;;;;;;;14.65;8.80;;;13.60;99.90;;;;;;6092256;23;20022;-84
2023/07/20 03:26:08;;;;;;;9.25;8.32;;;13.50;99.90;;;;;;6092418;23;20448;-84
2023/07/20 03:28:37;;;;;;;12.30;9.45;;;13.50;99.90;;;;;;6092471;23;20069;-83
2023/07/20 03:31:04;;;;;;;9.10;8.18;;;13.40;99.90;;;;;;6069912;23;20025;-84
2023/07/20 03:33:30;;;;;;;10.00;8.52;;;13.40;99.90;;;;;;6092638;23;20040;-85
2023/07/20 03:35:56;;;;;;;8.88;7.97;;;13.40;99.90;;;;;;6092509;23;20133;-84
2023/07/20 03:38:23;;;;;;;8.27;7.50;;;13.40;99.90;;;;;;6070264;23;20025;-84
2023/07/20 03:40:54;;;;;;;8.43;7.63;;;13.40;99.90;;;;;;6093594;23;20321;-84
2023/07/20 03:43:24;;;;;;;8.45;7.50;;;13.40;99.90;;;;;;6070092;23;20344;-84
2023/07/20 03:45:51;;;;;;;9.55;7.82;;;13.40;99.90;;;;;;6094263;23;20102;-84
2023/07/20 03:48:18;;;;;;;9.18;7.40;;;13.30;99.90;;;;;;6093886;23;20010;-84
2023/07/20 03:50:48;;;;;;;7.65;6.93;;;13.30;99.90;;;;;;6094164;23;20726;-84
2023/07/20 03:53:15;;;;;;;8.20;7.40;;;13.30;99.90;;;;;;6070705;23;20463;-84
2023/07/20 03:55:51;;;;;;;8.07;7.28;;;13.30;99.90;;;;;;6094264;23;20011;-84
2023/07/20 03:58:17;;;;;;;7.80;7.05;;;13.40;99.90;;;;;;6094739;23;20479;-84
2023/07/20 04:00:45;;;;;;;8.20;7.40;;;13.40;99.90;;;;;;6094638;23;20076;-84
2023/07/20 04:03:11;;;;;;;8.18;7.38;;;13.40;99.90;;;;;;6094376;23;20022;-84
2023/07/20 04:05:37;;;;;;;7.80;7.00;;;13.40;99.90;;;;;;6094203;23;20453;-84
2023/07/20 04:08:02;;;;;;;8.85;7.55;;;13.30;99.90;;;;;;6070580;23;20409;-84
2023/07/20 04:10:28;;;;;;;8.48;7.55;;;13.30;99.90;;;;;;6094761;23;20390;-84
2023/07/20 04:12:54;;;;;;;10.40;7.68;;;13.30;99.90;;;;;;6101708;23;20014;-83
2023/07/20 04:15:20;;;;;;;8.70;7.30;;;13.30;99.90;;;;;;6070971;23;20045;-84
2023/07/20 04:17:45;;;;;;;7.90;7.10;;;13.30;99.90;;;;;;6070005;23;20041;-84
2023/07/20 04:20:11;;;;;;;7.50;6.80;;;13.30;99.90;;;;;;6094327;23;20018;-84
2023/07/20 04:22:37;;;;;;;7.72;6.97;;;13.30;99.90;;;;;;6094001;23;20097;-84
2023/07/20 04:25:04;;;;;;;7.35;6.65;;;13.30;99.90;;;;;;6094548;23;20113;-84
2023/07/20 04:27:30;;;;;;;10.80;6.80;;;13.30;99.90;;;;;;6093712;23;20018;-84
2023/07/20 04:29:58;;;;;;;8.23;7.10;;;13.30;99.90;;;;;;6094263;23;20089;-84
2023/07/20 04:32:25;;;;;;;7.60;6.85;;;13.30;99.90;;;;;;6069816;23;20072;-84
2023/07/20 04:34:50;;;;;;;7.10;6.40;;;13.40;99.90;;;;;;6070548;23;20309;-84
2023/07/20 04:37:16;;;;;;;6.57;5.85;;;13.30;99.90;;;;;;6069945;23;20050;-84
2023/07/20 04:39:42;;;;;;;7.15;6.45;;;13.40;99.90;;;;;;6094110;23;20452;-85
2023/07/20 04:42:07;;;;;;;7.85;7.03;;;13.40;99.90;;;;;;6069864;23;20050;-84
2023/07/20 04:44:33;;;;;;;7.82;6.43;;;13.30;99.90;;;;;;6093650;23;20026;-84
2023/07/20 04:46:59;;;;;;;6.55;5.88;;;13.30;99.90;;;;;;6069458;23;20026;-84
2023/07/20 04:49:24;;;;;;;6.30;5.68;;;13.30;99.90;;;;;;6069842;23;20322;-84
2023/07/20 04:51:51;;;;;;;6.18;5.55;;;13.40;99.90;;;;;;6093371;23;20025;-84
2023/07/20 04:54:17;;;;;;;10.73;5.95;;;13.40;99.90;;;;;;6070333;23;20046;-84
2023/07/20 04:56:42;;;;;;;6.00;5.40;;;13.40;99.90;;;;;;6093844;23;20018;-84
2023/07/20 04:59:08;;;;;;;5.90;5.32;;;13.40;99.90;;;;;;6094226;23;20038;-84
2023/07/20 05:01:34;;;;;;;5.72;5.20;;;13.50;99.90;;;;;;6093809;23;20027;-84
2023/07/20 05:03:59;;;;;;;5.38;4.88;;;13.50;99.90;;;;;;6069984;23;20022;-84
2023/07/20 05:06:25;;;;;;;6.75;5.22;;;13.50;99.90;;;;;;6093792;23;20496;-84
2023/07/20 05:08:51;;;;;;;5.82;5.22;;;13.50;99.90;;;;;;6069895;23;20019;-85
2023/07/20 05:11:17;;;;;;;5.32;4.65;;;13.60;99.90;;;;;;6093735;23;20014;-84
2023/07/20 05:13:42;;;;;;;5.88;5.10;;;13.60;99.90;;;;;;6093330;23;20015;-84
2023/07/20 05:16:08;;;;;;;8.30;5.60;;;13.70;99.90;;;;;;6069415;23;20093;-84
2023/07/20 05:18:34;;;;;;;5.70;4.85;;;13.70;99.90;;;;;;6069753;23;20018;-84
2023/07/20 05:20:59;;;;;;;5.32;4.82;;;13.70;99.90;;;;;;6092916;23;20014;-83
2023/07/20 05:23:25;;;;;;;5.10;4.35;;;13.70;99.90;;;;;;6068798;23;20397;-84
2023/07/20 05:25:56;;;;;;;4.40;4.00;;;13.70;99.90;;;;;;6069786;23;20045;-84
2023/07/20 05:28:22;;;;;;;4.57;4.13;;;13.80;99.90;;;;;;6093518;23;20011;-84
2023/07/20 05:30:48;;;;;;;3.80;3.45;;;13.80;99.90;;;;;;6069686;23;20738;-83
2023/07/20 05:33:14;;;;;;;3.70;3.30;;;13.80;99.90;;;;;;6093410;23;20014;-83
2023/07/20 05:35:40;;;;;;;3.72;3.42;;;13.90;99.90;;;;;;6070070;23;20017;-83
2023/07/20 05:38:06;;;;;;;3.35;3.00;;;13.90;99.90;;;;;;6069471;23;20022;-83
2023/07/20 05:40:32;;;;;;;3.10;2.80;;;14.00;99.90;;;;;;6094043;23;20018;-83
2023/07/20 05:42:58;;;;;;;3.60;3.30;;;14.10;99.90;;;;;;6093616;23;20381;-83
2023/07/20 05:45:24;;;;;;;3.47;3.17;;;14.20;99.90;;;;;;6093086;23;20077;-83
2023/07/20 05:47:50;;;;;;;3.55;3.25;;;14.20;99.90;;;;;;6093357;23;20023;-83
2023/07/20 05:50:16;;;;;;;3.17;2.88;;;14.30;99.90;;;;;;6094881;23;20017;-83
2023/07/20 05:52:41;;;;;;;5.57;2.97;;;14.40;99.90;;;;;;6045881;23;20014;-83
2023/07/20 05:55:07;;;;;;;3.60;3.05;;;14.60;99.90;;;;;;6093205;23;20049;-83
2023/07/20 05:57:33;;;;;;;3.80;2.85;;;14.70;99.90;;;;;;6070165;23;20109;-83
2023/07/20 05:59:59;;;;;;;3.53;3.22;;;14.80;99.90;;;;;;6045506;23;20119;-84
2023/07/20 06:02:25;;;;;;;4.43;2.88;;;14.90;99.90;;;;;;6093345;23;20018;-84
2023/07/20 06:04:50;;;;;;;4.15;2.92;;;15.00;99.90;;;;;;6092789;23;20026;-84
2023/07/20 06:07:16;;;;;;;2.90;2.70;;;15.00;99.90;;;;;;6093874;23;20015;-84
2023/07/20 06:09:42;;;;;;;4.25;2.60;;;15.10;99.90;;;;;;6117497;23;20520;-84
2023/07/20 06:12:08;;;;;;;4.30;2.88;;;15.10;99.90;;;;;;6093529;23;20045;-84
2023/07/20 06:14:34;;;;;;;2.90;2.70;;;15.20;99.90;;;;;;6092772;23;20010;-84
2023/07/20 06:17:00;;;;;;;3.80;3.00;;;15.20;99.90;;;;;;6068034;23;20026;-83
2023/07/20 06:19:25;;;;;;;4.05;2.30;;;15.20;99.90;;;;;;6068749;23;20014;-83
2023/07/20 06:21:51;;;;;;;3.70;2.55;;;15.20;99.90;;;;;;6069422;23;20018;-83
2023/07/20 06:24:17;;;;;;;2.40;2.20;;;15.20;99.90;;;;;;6093336;23;20015;-83
2023/07/20 06:26:43;;;;;;;3.28;2.45;;;15.20;99.90;;;;;;6093313;23;20538;-83
2023/07/20 06:29:10;;;;;;;2.80;2.60;;;15.20;99.90;;;;;;6093403;23;20077;-83
2023/07/20 06:31:36;;;;;;;2.85;2.40;;;15.30;99.90;;;;;;6068855;23;20094;-84
2023/07/20 06:34:02;;;;;;;4.85;2.50;;;15.40;99.90;;;;;;6091503;23;20007;-83
2023/07/20 06:36:28;;;;;;;4.68;2.10;;;15.50;99.90;;;;;;6092951;23;20010;-84
2023/07/20 06:38:55;;;;;;;2.40;2.15;;;15.60;99.90;;;;;;6069353;23;20025;-83
2023/07/20 06:41:22;;;;;;;5.70;2.17;;;15.70;99.90;;;;;;6093129;23;20011;-83
2023/07/20 06:43:47;;;;;;;2.05;1.85;;;15.90;99.90;;;;;;6069480;23;20078;-83
2023/07/20 06:46:13;;;;;;;2.55;1.90;;;16.00;99.90;;;;;;6090811;23;20022;-84
2023/07/20 06:48:39;;;;;;;2.40;1.50;;;16.00;99.90;;;;;;6067370;23;20105;-84
2023/07/20 06:51:05;;;;;;;4.93;2.20;;;16.10;99.90;;;;;;6068144;23;20457;-83
2023/07/20 06:53:31;;;;;;;4.35;1.90;;;16.20;99.90;;;;;;6091179;23;20734;-83
2023/07/20 06:55:57;;;;;;;4.32;1.65;;;16.30;99.90;;;;;;6092480;23;20011;-83
2023/07/20 06:58:24;;;;;;;2.13;1.60;;;16.40;99.90;;;;;;6069597;23;20456;-83
2023/07/20 07:00:49;;;;;;;5.50;1.85;;;16.50;99.90;;;;;;6045264;23;20053;-84
2023/07/20 07:03:15;;;;;;;1.65;1.30;;;16.50;99.90;;;;;;6092736;23;20026;-85
2023/07/20 07:05:41;;;;;;;3.25;1.60;;;16.60;99.90;;;;;;6092968;23;20019;-84
2023/07/20 07:08:07;;;;;;;2.33;1.45;;;16.50;99.90;;;;;;6068520;23;20018;-83
2023/07/20 07:10:35;;;;;;;4.57;1.40;;;16.60;99.90;;;;;;6068803;23;20085;-82
2023/07/20 07:13:01;;;;;;;1.77;1.27;;;16.60;99.90;;;;;;6070897;23;20302;-83
2023/07/20 07:15:27;;;;;;;4.72;1.88;;;16.70;99.90;;;;;;6071470;23;20511;-83
2023/07/20 07:17:53;;;;;;;3.35;1.50;;;16.70;99.90;;;;;;6095420;23;20074;-83
2023/07/20 07:20:18;;;;;;;2.80;1.30;;;16.80;99.90;;;;;;6047208;23;20022;-83
2023/07/20 07:22:45;;;;;;;5.25;1.58;;;16.80;99.90;;;;;;6071231;23;20014;-83
2023/07/20 07:25:11;;;;;;;5.88;1.40;;;16.80;99.90;;;;;;6070684;23;20014;-82
2023/07/20 07:27:36;;;;;;;6.15;1.65;;;16.90;99.90;;;;;;6095470;23;20478;-84
2023/07/20 07:30:03;;;;;;;4.63;1.50;;;16.90;99.90;;;;;;6071467;23;20037;-83
2023/07/20 07:32:29;;;;;;;2.30;1.48;;;17.00;99.90;;;;;;6095049;23;20050;-82
2023/07/20 07:34:55;;;;;;;3.28;1.77;;;17.00;99.90;;;;;;6070812;23;20313;-83
2023/07/20 07:37:21;;;;;;;3.70;1.60;;;16.90;99.90;;;;;;6047161;23;20462;-83
2023/07/20 07:39:47;;;;;;;3.65;1.40;;;16.90;99.90;;;;;;6070769;23;20046;-83
2023/07/20 07:42:13;;;;;;;3.15;1.40;;;17.10;99.90;;;;;;6070165;23;20089;-82
2023/07/20 07:44:38;;;;;;;1.75;1.30;;;17.10;99.90;;;;;;6093006;23;20026;-81
2023/07/20 07:47:04;;;;;;;3.78;1.63;;;17.20;99.90;;;;;;6069054;23;20022;-82
2023/07/20 07:49:31;;;;;;;1.95;1.20;;;17.20;99.90;;;;;;6045993;23;20014;-83
2023/07/20 07:51:57;;;;;;;5.18;1.75;;;17.20;99.90;;;;;;6094348;23;20011;-84
2023/07/20 07:54:22;;;;;;;1.88;1.27;;;17.20;99.90;;;;;;6069082;23;20452;-83
2023/07/20 07:56:48;;;;;;;3.65;1.55;;;17.40;99.90;;;;;;6070557;23;20018;-82
2023/07/20 07:59:14;;;;;;;2.63;1.30;;;17.40;99.90;;;;;;6046905;23;20049;-83
2023/07/20 08:01:40;;;;;;;3.28;1.60;;;17.50;99.90;;;;;;6070993;23;20074;-83
2023/07/20 08:04:05;;;;;;;2.60;1.10;;;17.50;99.90;;;;;;6046917;23;20453;-83
2023/07/20 08:06:31;;;;;;;2.63;1.30;;;17.50;99.90;;;;;;6094838;23;20014;-81
2023/07/20 08:08:57;;;;;;;2.45;1.40;;;17.50;99.90;;;;;;6094990;23;20046;-82
2023/07/20 08:11:24;;;;;;;2.35;1.30;;;17.60;99.90;;;;;;6070649;23;20014;-82
2023/07/20 08:13:49;;;;;;;1.70;1.13;;;17.60;99.90;;;;;;6094451;23;20081;-82
2023/07/20 08:16:15;;;;;;;1.70;1.40;;;17.70;99.90;;;;;;6070877;23;20015;-82
2023/07/20 08:18:41;;;;;;;2.38;1.20;;;17.80;99.90;;;;;;6046868;23;20014;-82
2023/07/20 08:21:07;;;;;;;2.30;1.38;;;17.90;99.90;;;;;;6070708;23;20050;-81
2023/07/20 08:23:32;;;;;;;2.22;1.50;;;18.00;99.90;;;;;;6094053;23;20021;-81
2023/07/20 08:25:58;;;;;;;2.15;1.55;;;18.00;99.90;;;;;;6046807;23;20018;-82
2023/07/20 08:28:26;;;;;;;2.80;2.03;;;18.10;99.90;;;;;;6070403;23;20102;-82
2023/07/20 08:30:52;;;;;;;3.13;1.50;;;18.20;99.90;;;;;;6094359;23;20014;-81
2023/07/20 08:33:19;;;;;;;2.72;1.40;;;18.30;99.90;;;;;;6094393;23;20520;-80
2023/07/20 08:35:45;;;;;;;2.80;1.55;;;18.40;99.90;;;;;;6070490;23;20093;-80
2023/07/20 08:38:12;;;;;;;3.20;2.00;;;18.50;99.90;;;;;;6094102;23;20038;-81
2023/07/20 08:40:43;;;;;;;4.55;1.73;;;18.60;99.90;;;;;;6094078;23;20015;-81
2023/07/20 08:43:13;;;;;;;3.40;1.53;;;18.70;99.90;;;;;;6094123;23;20662;-81
2023/07/20 08:45:40;;;;;;;2.60;1.42;;;18.70;99.90;;;;;;6093418;23;20094;-81
2023/07/20 08:48:07;;;;;;;2.67;1.40;;;18.50;99.90;;;;;;6093488;23;20010;-81
2023/07/20 08:50:34;;;;;;;1.95;1.40;;;18.30;99.90;;;;;;6093606;23;20058;-81
2023/07/20 08:53:01;;;;;;;1.83;1.30;;;18.10;99.90;;;;;;6093585;23;20015;-81
2023/07/20 08:55:28;;;;;;;1.92;1.38;;;18.30;99.90;;;;;;6093834;23;20006;-81
2023/07/20 08:57:55;;;;;;;3.15;1.40;;;18.40;99.90;;;;;;6093676;23;20154;-80
2023/07/20 09:00:21;;;;;;;5.50;1.60;;;18.50;99.90;;;;;;6093719;23;20075;-81
2023/07/20 09:02:51;;;;;;;3.13;1.50;;;18.70;99.90;;;;;;6069212;23;20476;-81
2023/07/20 09:05:20;;;;;;;3.60;1.65;;;18.90;99.90;;;;;;6093441;23;20018;-81
2023/07/20 09:07:46;;;;;;;1.92;1.20;;;18.90;99.90;;;;;;6093759;23;20027;-80
2023/07/20 09:10:12;;;;;;;1.42;1.33;;;19.00;99.90;;;;;;6093719;23;20017;-80
2023/07/20 09:12:40;;;;;;;4.65;1.65;;;19.10;99.90;;;;;;6069910;23;20018;-80
2023/07/20 09:15:06;;;;;;;2.65;1.30;;;19.20;99.90;;;;;;6093754;23;20341;-80
2023/07/20 09:17:32;;;;;;;3.22;1.45;;;19.20;99.90;;;;;;6093599;23;20042;-80
2023/07/20 09:19:59;;;;;;;2.75;1.33;;;19.30;99.90;;;;;;6118143;23;20037;-80
2023/07/20 09:22:31;;;;;;;2.67;1.13;;;19.40;99.90;;;;;;6093281;23;20352;-80
2023/07/20 09:24:58;;;;;;;2.10;1.10;;;19.40;99.90;;;;;;6093253;23;20014;-80
2023/07/20 09:27:44;;;;;;;1.90;1.25;;;19.50;99.90;;;;;;6069169;23;20077;-80
2023/07/20 09:30:14;;;;;;;3.08;1.15;;;19.60;99.90;;;;;;6093077;23;20341;-81
2023/07/20 09:32:44;;;;;;;2.63;1.38;;;19.70;99.90;;;;;;6070486;23;20021;-81
2023/07/20 09:35:21;;;;;;;2.07;1.40;;;19.60;99.90;;;;;;6045872;23;20011;-82
2023/07/20 09:37:54;;;;;;;2.40;1.27;;;19.50;99.90;;;;;;6093718;23;20337;-81
2023/07/20 09:40:20;;;;;;;3.63;1.27;;;19.40;99.90;;;;;;6093380;23;20077;-80
2023/07/20 09:42:46;;;;;;;2.95;1.38;;;19.30;99.90;;;;;;6093358;23;20437;-80
2023/07/20 09:45:12;;;;;;;1.45;1.35;;;19.30;99.90;;;;;;6069579;23;20033;-82
2023/07/20 09:47:39;;;;;;;2.90;1.50;;;19.20;99.90;;;;;;6093338;23;20074;-80
2023/07/20 09:50:10;;;;;;;3.03;1.58;;;19.30;99.90;;;;;;6093247;23;20124;-80
2023/07/20 09:52:40;;;;;;;2.75;1.75;;;19.60;99.90;;;;;;6093179;23;20022;-80
2023/07/20 09:55:11;;;;;;;3.40;1.40;;;19.80;99.90;;;;;;6069012;23;20025;-81
2023/07/20 09:57:37;;;;;;;2.55;1.42;;;19.90;99.90;;;;;;6093070;23;20014;-79
2023/07/20 10:00:11;;;;;;;1.85;1.50;;;19.90;99.90;;;;;;6092653;23;20391;-81
2023/07/20 10:02:43;;;;;;;2.92;1.60;;;19.80;99.90;;;;;;6093095;23;20087;-81
2023/07/20 10:05:11;;;;;;;2.78;1.95;;;19.60;99.90;;;;;;6069966;23;20034;-80
2023/07/20 10:07:43;;;;;;;2.97;1.90;;;19.20;99.90;;;;;;6093214;23;20034;-80
2023/07/20 10:10:10;;;;;;;5.22;2.28;;;19.00;99.90;;;;;;6093323;23;20014;-80
2023/07/20 10:12:39;;;;;;;3.05;1.63;;;19.10;99.90;;;;;;6092517;23;20011;-80
2023/07/20 10:15:18;;;;;;;2.28;1.77;;;19.20;99.90;;;;;;6093302;23;20041;-80
2023/07/20 10:17:57;;;;;;;2.53;1.63;;;19.40;99.90;;;;;;6093630;23;20078;-80
2023/07/20 10:20:24;;;;;;;2.38;1.60;;;19.50;99.90;;;;;;6092741;23;20014;-80
2023/07/20 10:22:53;;;;;;;2.58;1.60;;;19.80;99.90;;;;;;6092341;23;20704;-80
2023/07/20 10:25:22;;;;;;;5.28;1.95;;;20.00;99.90;;;;;;6068980;23;20022;-80
2023/07/20 10:27:48;;;;;;;3.38;1.90;;;20.30;99.90;;;;;;6092361;23;20014;-80
2023/07/20 10:30:14;;;;;;;2.85;1.90;;;20.40;99.90;;;;;;6092250;23;20068;-81
2023/07/20 10:32:42;;;;;;;2.53;1.65;;;20.40;99.90;;;;;;6044842;23;20033;-80
2023/07/20 10:35:16;;;;;;;6.28;2.03;;;20.40;99.90;;;;;;6069209;23;20010;-80
2023/07/20 10:37:53;;;;;;;4.88;1.80;;;20.50;99.90;;;;;;6068311;23;20020;-81
2023/07/20 10:40:33;;;;;;;4.38;1.80;;;20.60;99.90;;;;;;6092918;23;20024;-81
2023/07/20 10:43:03;;;;;;;3.00;2.00;;;20.70;99.90;;;;;;6092203;23;20169;-80
2023/07/20 10:45:42;;;;;;;3.72;1.75;;;20.90;99.90;;;;;;6092338;23;20405;-81
2023/07/20 10:48:20;;;;;;;3.53;1.85;;;21.10;99.90;;;;;;6091669;23;20022;-81
2023/07/20 10:51:06;;;;;;;3.92;1.83;;;21.20;99.90;;;;;;6092037;23;20014;-81
2023/07/20 10:53:32;;;;;;;5.65;1.90;;;21.30;99.90;;;;;;6092732;23;20021;-82
2023/07/20 10:56:11;;;;;;;4.55;1.92;;;21.00;99.90;;;;;;6044934;23;20015;-82
2023/07/20 10:58:37;;;;;;;2.65;1.77;;;20.50;99.90;;;;;;6093492;23;20109;-82
2023/07/20 11:01:06;;;;;;;4.03;2.05;;;20.10;99.90;;;;;;6092760;23;20054;-81
2023/07/20 11:03:39;;;;;;;3.53;2.25;;;19.80;99.90;;;;;;6092743;23;20093;-82
2023/07/20 11:06:23;;;;;;;4.30;1.70;;;19.50;99.90;;;;;;6092913;23;20361;-82
2023/07/20 11:08:49;;;;;;;3.15;1.92;;;19.30;99.90;;;;;;6092548;23;20022;-81
2023/07/20 11:11:22;;;;;;;4.20;2.00;;;19.20;99.90;;;;;;6093182;23;20034;-82
2023/07/20 11:14:02;;;;;;;4.97;1.90;;;19.20;99.90;;;;;;6069466;23;20022;-82
2023/07/20 11:16:45;;;;;;;2.58;1.90;;;19.40;99.90;;;;;;6069151;23;20014;-81
2023/07/20 11:19:25;;;;;;;3.15;1.60;;;19.50;99.90;;;;;;6092830;23;20017;-81
2023/07/20 11:21:56;;;;;;;2.67;1.83;;;19.80;99.90;;;;;;6092850;23;20025;-82
2023/07/20 11:24:23;;;;;;;4.80;1.73;;;20.00;99.90;;;;;;6092760;23;20038;-82
2023/07/20 11:26:50;;;;;;;2.35;1.48;;;20.30;99.90;;;;;;6068519;23;20447;-81
2023/07/20 11:29:17;;;;;;;2.67;1.48;;;20.50;99.90;;;;;;6092564;23;20014;-82
2023/07/20 11:31:44;;;;;;;5.13;1.90;;;20.60;99.90;;;;;;6092335;23;20058;-80
2023/07/20 11:34:14;;;;;;;3.00;1.60;;;20.70;99.90;;;;;;6092609;23;20444;-83
2023/07/20 11:36:50;;;;;;;2.85;1.75;;;20.70;99.90;;;;;;6092775;23;20014;-81
2023/07/20 11:39:21;;;;;;;1.95;1.63;;;20.90;99.90;;;;;;6068542;23;20014;-82
2023/07/20 11:41:48;;;;;;;3.63;1.98;;;21.10;99.90;;;;;;6069990;23;20073;-83
2023/07/20 11:44:15;;;;;;;2.10;1.48;;;21.20;99.90;;;;;;6092577;23;20050;-81
2023/07/20 11:46:44;;;;;;;3.35;1.80;;;21.30;99.90;;;;;;6092340;23;20014;-82
2023/07/20 11:49:11;;;;;;;3.85;2.05;;;21.30;99.90;;;;;;6045133;23;20019;-81
2023/07/20 11:51:38;;;;;;;2.25;1.77;;;21.20;99.90;;;;;;6069165;23;20045;-81
2023/07/20 11:54:07;;;;;;;3.22;1.95;;;20.90;99.90;;;;;;6068797;23;20018;-82
2023/07/20 11:56:33;;;;;;;2.88;1.50;;;20.70;99.90;;;;;;6092632;23;20335;-82
2023/07/20 11:59:01;;;;;;;5.63;1.98;;;20.60;99.90;;;;;;6069875;23;20018;-81
2023/07/20 12:01:28;;;;;;;2.95;1.60;;;20.50;99.90;;;;;;6094654;23;20014;-81
2023/07/20 12:03:56;;;;;;;1.67;1.40;;;20.20;99.90;;;;;;6094595;23;20037;-82
2023/07/20 12:06:27;;;;;;;2.70;1.58;;;19.80;99.90;;;;;;6094458;23;20015;-81
2023/07/20 12:08:58;;;;;;;3.80;1.58;;;19.50;99.90;;;;;;6093915;23;20132;-81
2023/07/20 12:11:38;;;;;;;3.22;1.75;;;19.30;99.90;;;;;;6071246;23;20101;-81
2023/07/20 12:14:06;;;;;;;3.13;1.35;;;19.10;99.90;;;;;;6094808;23;20018;-82
2023/07/20 12:16:32;;;;;;;3.20;1.40;;;19.00;99.90;;;;;;6071055;23;20019;-80
2023/07/20 12:19:02;;;;;;;2.10;1.45;;;18.80;99.90;;;;;;6094138;23;20015;-82
2023/07/20 12:21:29;;;;;;;2.42;1.25;;;18.80;99.90;;;;;;6094102;23;20022;-81
2023/07/20 12:23:57;;;;;;;2.45;1.20;;;18.80;99.90;;;;;;6070881;23;20487;-81
2023/07/20 12:26:23;;;;;;;5.53;1.60;;;18.90;99.90;;;;;;6094563;23;20324;-81
2023/07/20 12:28:50;;;;;;;2.38;1.40;;;19.00;99.90;;;;;;6069530;23;20347;-81
2023/07/20 12:31:15;;;;;;;2.95;1.88;;;19.00;99.90;;;;;;6094684;23;20056;-80
2023/07/20 12:33:41;;;;;;;2.75;1.65;;;19.30;99.90;;;;;;6094271;23;20014;-81
2023/07/20 12:36:08;;;;;;;2.47;1.55;;;19.70;99.90;;;;;;6094849;23;20461;-81
2023/07/20 12:38:34;;;;;;;3.28;1.63;;;20.10;99.90;;;;;;6095243;23;20019;-81
2023/07/20 12:41:01;;;;;;;2.53;1.67;;;20.40;99.90;;;;;;6094947;23;20033;-81
2023/07/20 12:43:27;;;;;;;5.40;2.22;;;20.60;99.90;;;;;;6094853;23;20073;-82
2023/07/20 12:45:54;;;;;;;4.07;1.75;;;20.60;99.90;;;;;;6094622;23;20109;-81
2023/07/20 12:48:20;;;;;;;2.75;1.42;;;20.40;99.90;;;;;;6069555;23;20336;-81